sensor_id;sensor_type;location;lat;lon;timestamp;P1;durP1;ratioP1;P2;durP2;ratioP2
50900;SDS011;36879;51.416;6.678;2022-12-18T00:00:41;23.33;;;12.55;;
50900;SDS011;36879;51.416;6.678;2022-12-18T00:03:07;21.05;;;10.23;;
50900;SDS011;36879;51.416;6.678;2022-12-18T00:05:33;26.42;;;10.45;;
50900;SDS011;36879;51.416;6.678;2022-12-18T00:07:59;16.98;;;8.88;;
50900;SDS011;36879;51.416;6.678;2022-12-18T00:10:25;17.48;;;9.60;;
50900;SDS011;36879;51.416;6.678;2022-12-18T00:12:52;18.63;;;10.15;;
50900;SDS011;36879;51.416;6.678;2022-12-18T00:15:18;18.58;;;9.10;;
50900;SDS011;36879;51.416;6.678;2022-12-18T00:17:44;19.02;;;8.75;;
50900;SDS011;36879;51.416;6.678;2022-12-18T00:20:10;20.55;;;10.30;;
50900;SDS011;36879;51.416;6.678;2022-12-18T00:22:36;21.60;;;10.10;;
50900;SDS011;36879;51.416;6.678;2022-12-18T00:25:02;24.98;;;11.60;;
50900;SDS011;36879;51.416;6.678;2022-12-18T00:27:28;18.90;;;9.75;;
50900;SDS011;36879;51.416;6.678;2022-12-18T00:29:54;24.17;;;11.40;;
50900;SDS011;36879;51.416;6.678;2022-12-18T00:32:20;19.48;;;10.43;;
50900;SDS011;36879;51.416;6.678;2022-12-18T00:34:46;20.80;;;9.80;;
50900;SDS011;36879;51.416;6.678;2022-12-18T00:37:12;25.38;;;12.38;;
50900;SDS011;36879;51.416;6.678;2022-12-18T00:39:38;17.58;;;9.68;;
50900;SDS011;36879;51.416;6.678;2022-12-18T00:42:04;20.67;;;9.20;;
50900;SDS011;36879;51.416;6.678;2022-12-18T00:44:49;20.25;;;8.88;;
50900;SDS011;36879;51.416;6.678;2022-12-18T00:47:15;18.10;;;8.48;;
50900;SDS011;36879;51.416;6.678;2022-12-18T00:49:41;14.95;;;8.43;;
50900;SDS011;36879;51.416;6.678;2022-12-18T00:52:07;16.25;;;8.68;;
50900;SDS011;36879;51.416;6.678;2022-12-18T00:54:33;20.02;;;9.18;;
50900;SDS011;36879;51.416;6.678;2022-12-18T00:56:59;16.52;;;9.02;;
50900;SDS011;36879;51.416;6.678;2022-12-18T00:59:25;18.85;;;8.57;;
50900;SDS011;36879;51.416;6.678;2022-12-18T01:01:52;20.05;;;9.85;;
50900;SDS011;36879;51.416;6.678;2022-12-18T01:04:18;21.38;;;8.55;;
50900;SDS011;36879;51.416;6.678;2022-12-18T01:06:44;22.70;;;10.35;;
50900;SDS011;36879;51.416;6.678;2022-12-18T01:09:10;32.58;;;11.23;;
50900;SDS011;36879;51.416;6.678;2022-12-18T01:11:37;22.38;;;10.82;;
50900;SDS011;36879;51.416;6.678;2022-12-18T01:14:03;19.27;;;10.00;;
50900;SDS011;36879;51.416;6.678;2022-12-18T01:16:29;19.75;;;9.25;;
50900;SDS011;36879;51.416;6.678;2022-12-18T01:18:55;17.90;;;8.90;;
50900;SDS011;36879;51.416;6.678;2022-12-18T01:21:21;16.30;;;8.13;;
50900;SDS011;36879;51.416;6.678;2022-12-18T01:23:50;16.35;;;7.45;;
50900;SDS011;36879;51.416;6.678;2022-12-18T01:26:17;10.90;;;7.65;;
50900;SDS011;36879;51.416;6.678;2022-12-18T01:28:43;17.23;;;7.07;;
50900;SDS011;36879;51.416;6.678;2022-12-18T01:31:10;15.98;;;8.05;;
50900;SDS011;36879;51.416;6.678;2022-12-18T01:33:36;12.98;;;6.68;;
50900;SDS011;36879;51.416;6.678;2022-12-18T01:36:02;13.45;;;7.10;;
50900;SDS011;36879;51.416;6.678;2022-12-18T01:38:28;17.25;;;7.20;;
50900;SDS011;36879;51.416;6.678;2022-12-18T01:40:58;19.27;;;8.65;;
50900;SDS011;36879;51.416;6.678;2022-12-18T01:46:09;19.25;;;7.38;;
50900;SDS011;36879;51.416;6.678;2022-12-18T01:48:35;21.48;;;9.20;;
50900;SDS011;36879;51.416;6.678;2022-12-18T01:51:01;19.73;;;10.35;;
50900;SDS011;36879;51.416;6.678;2022-12-18T01:53:27;17.20;;;8.45;;
50900;SDS011;36879;51.416;6.678;2022-12-18T01:55:54;15.00;;;8.65;;
50900;SDS011;36879;51.416;6.678;2022-12-18T01:58:23;24.30;;;9.10;;
50900;SDS011;36879;51.416;6.678;2022-12-18T02:00:50;20.48;;;9.93;;
50900;SDS011;36879;51.416;6.678;2022-12-18T02:03:15;18.90;;;9.30;;
50900;SDS011;36879;51.416;6.678;2022-12-18T02:05:50;21.60;;;10.07;;
50900;SDS011;36879;51.416;6.678;2022-12-18T02:13:20;18.65;;;10.05;;
50900;SDS011;36879;51.416;6.678;2022-12-18T02:16:01;21.13;;;9.85;;
50900;SDS011;36879;51.416;6.678;2022-12-18T02:18:31;19.85;;;9.60;;
50900;SDS011;36879;51.416;6.678;2022-12-18T02:23:42;23.35;;;9.32;;
50900;SDS011;36879;51.416;6.678;2022-12-18T02:26:22;20.70;;;9.55;;
50900;SDS011;36879;51.416;6.678;2022-12-18T02:28:56;20.30;;;10.65;;
50900;SDS011;36879;51.416;6.678;2022-12-18T02:31:24;15.45;;;8.75;;
50900;SDS011;36879;51.416;6.678;2022-12-18T02:33:52;26.95;;;11.85;;
50900;SDS011;36879;51.416;6.678;2022-12-18T02:36:19;23.83;;;11.13;;
50900;SDS011;36879;51.416;6.678;2022-12-18T02:38:45;15.00;;;9.80;;
50900;SDS011;36879;51.416;6.678;2022-12-18T02:41:12;19.20;;;10.00;;
50900;SDS011;36879;51.416;6.678;2022-12-18T02:43:40;20.55;;;10.98;;
50900;SDS011;36879;51.416;6.678;2022-12-18T02:48:51;26.20;;;12.65;;
50900;SDS011;36879;51.416;6.678;2022-12-18T02:51:23;22.40;;;11.13;;
50900;SDS011;36879;51.416;6.678;2022-12-18T02:53:51;35.13;;;13.55;;
50900;SDS011;36879;51.416;6.678;2022-12-18T02:56:24;27.23;;;12.77;;
50900;SDS011;36879;51.416;6.678;2022-12-18T03:01:25;24.83;;;11.80;;
50900;SDS011;36879;51.416;6.678;2022-12-18T03:03:56;21.27;;;10.55;;
50900;SDS011;36879;51.416;6.678;2022-12-18T03:06:25;19.00;;;10.10;;
50900;SDS011;36879;51.416;6.678;2022-12-18T03:08:54;27.10;;;10.15;;
50900;SDS011;36879;51.416;6.678;2022-12-18T03:11:22;19.95;;;9.63;;
50900;SDS011;36879;51.416;6.678;2022-12-18T03:14:08;22.70;;;10.82;;
50900;SDS011;36879;51.416;6.678;2022-12-18T03:16:35;17.25;;;9.10;;
50900;SDS011;36879;51.416;6.678;2022-12-18T03:19:04;19.85;;;11.05;;
50900;SDS011;36879;51.416;6.678;2022-12-18T03:21:33;20.10;;;8.95;;
50900;SDS011;36879;51.416;6.678;2022-12-18T03:24:01;17.90;;;8.55;;
50900;SDS011;36879;51.416;6.678;2022-12-18T03:26:27;13.85;;;6.95;;
50900;SDS011;36879;51.416;6.678;2022-12-18T03:28:59;16.75;;;7.30;;
50900;SDS011;36879;51.416;6.678;2022-12-18T03:31:26;11.32;;;6.93;;
50900;SDS011;36879;51.416;6.678;2022-12-18T03:34:01;14.75;;;8.18;;
50900;SDS011;36879;51.416;6.678;2022-12-18T03:36:29;13.18;;;6.57;;
50900;SDS011;36879;51.416;6.678;2022-12-18T03:38:55;12.55;;;7.20;;
50900;SDS011;36879;51.416;6.678;2022-12-18T03:41:32;16.42;;;6.55;;
50900;SDS011;36879;51.416;6.678;2022-12-18T03:49:23;13.98;;;6.63;;
50900;SDS011;36879;51.416;6.678;2022-12-18T03:51:54;11.05;;;6.05;;
50900;SDS011;36879;51.416;6.678;2022-12-18T03:54:23;13.00;;;6.15;;
50900;SDS011;36879;51.416;6.678;2022-12-18T03:56:54;15.18;;;6.75;;
50900;SDS011;36879;51.416;6.678;2022-12-18T03:59:21;12.82;;;7.03;;
50900;SDS011;36879;51.416;6.678;2022-12-18T04:01:49;15.55;;;7.38;;
50900;SDS011;36879;51.416;6.678;2022-12-18T04:04:16;20.10;;;8.68;;
50900;SDS011;36879;51.416;6.678;2022-12-18T04:06:43;19.55;;;8.80;;
50900;SDS011;36879;51.416;6.678;2022-12-18T04:09:11;14.30;;;8.30;;
50900;SDS011;36879;51.416;6.678;2022-12-18T04:11:37;20.20;;;9.00;;
50900;SDS011;36879;51.416;6.678;2022-12-18T04:14:03;14.68;;;7.90;;
50900;SDS011;36879;51.416;6.678;2022-12-18T04:16:29;13.38;;;7.10;;
50900;SDS011;36879;51.416;6.678;2022-12-18T04:18:55;16.80;;;7.95;;
50900;SDS011;36879;51.416;6.678;2022-12-18T04:21:21;14.30;;;6.15;;
50900;SDS011;36879;51.416;6.678;2022-12-18T04:23:47;15.15;;;7.75;;
50900;SDS011;36879;51.416;6.678;2022-12-18T04:26:13;15.05;;;6.18;;
50900;SDS011;36879;51.416;6.678;2022-12-18T04:28:39;12.02;;;5.97;;
50900;SDS011;36879;51.416;6.678;2022-12-18T04:31:05;10.43;;;5.88;;
50900;SDS011;36879;51.416;6.678;2022-12-18T04:33:31;14.75;;;5.20;;
50900;SDS011;36879;51.416;6.678;2022-12-18T04:35:57;11.30;;;5.40;;
50900;SDS011;36879;51.416;6.678;2022-12-18T04:38:23;10.45;;;5.43;;
50900;SDS011;36879;51.416;6.678;2022-12-18T04:40:49;10.13;;;4.65;;
50900;SDS011;36879;51.416;6.678;2022-12-18T04:43:15;11.70;;;5.80;;
50900;SDS011;36879;51.416;6.678;2022-12-18T04:45:42;10.35;;;5.05;;
50900;SDS011;36879;51.416;6.678;2022-12-18T04:48:08;11.02;;;4.78;;
50900;SDS011;36879;51.416;6.678;2022-12-18T04:50:34;15.35;;;6.72;;
50900;SDS011;36879;51.416;6.678;2022-12-18T04:53:00;12.60;;;6.07;;
50900;SDS011;36879;51.416;6.678;2022-12-18T04:55:26;10.90;;;5.25;;
50900;SDS011;36879;51.416;6.678;2022-12-18T04:57:52;9.00;;;5.70;;
50900;SDS011;36879;51.416;6.678;2022-12-18T05:00:18;11.77;;;5.95;;
50900;SDS011;36879;51.416;6.678;2022-12-18T05:02:44;9.18;;;5.13;;
50900;SDS011;36879;51.416;6.678;2022-12-18T05:05:10;9.85;;;5.63;;
50900;SDS011;36879;51.416;6.678;2022-12-18T05:07:36;11.57;;;5.57;;
50900;SDS011;36879;51.416;6.678;2022-12-18T05:10:02;13.15;;;5.63;;
50900;SDS011;36879;51.416;6.678;2022-12-18T05:12:29;11.80;;;6.20;;
50900;SDS011;36879;51.416;6.678;2022-12-18T05:14:56;14.30;;;5.55;;
50900;SDS011;36879;51.416;6.678;2022-12-18T05:17:22;12.85;;;5.45;;
50900;SDS011;36879;51.416;6.678;2022-12-18T05:19:48;10.27;;;5.32;;
50900;SDS011;36879;51.416;6.678;2022-12-18T05:22:14;10.65;;;5.10;;
50900;SDS011;36879;51.416;6.678;2022-12-18T05:24:40;10.10;;;5.32;;
50900;SDS011;36879;51.416;6.678;2022-12-18T05:27:06;13.93;;;5.28;;
50900;SDS011;36879;51.416;6.678;2022-12-18T05:29:32;9.65;;;4.93;;
50900;SDS011;36879;51.416;6.678;2022-12-18T05:31:58;11.23;;;5.20;;
50900;SDS011;36879;51.416;6.678;2022-12-18T05:34:24;11.60;;;5.07;;
50900;SDS011;36879;51.416;6.678;2022-12-18T05:36:50;11.63;;;6.07;;
50900;SDS011;36879;51.416;6.678;2022-12-18T05:39:16;12.93;;;5.88;;
50900;SDS011;36879;51.416;6.678;2022-12-18T05:41:42;11.55;;;5.78;;
50900;SDS011;36879;51.416;6.678;2022-12-18T05:44:08;13.15;;;5.95;;
50900;SDS011;36879;51.416;6.678;2022-12-18T05:46:34;9.48;;;4.68;;
50900;SDS011;36879;51.416;6.678;2022-12-18T05:49:01;11.82;;;5.25;;
50900;SDS011;36879;51.416;6.678;2022-12-18T05:51:27;14.25;;;5.82;;
50900;SDS011;36879;51.416;6.678;2022-12-18T05:53:53;13.48;;;7.25;;
50900;SDS011;36879;51.416;6.678;2022-12-18T05:56:20;14.57;;;7.28;;
50900;SDS011;36879;51.416;6.678;2022-12-18T05:58:46;10.88;;;5.05;;
50900;SDS011;36879;51.416;6.678;2022-12-18T06:01:17;12.75;;;6.88;;
50900;SDS011;36879;51.416;6.678;2022-12-18T06:03:43;17.60;;;7.93;;
50900;SDS011;36879;51.416;6.678;2022-12-18T06:06:17;15.10;;;6.80;;
50900;SDS011;36879;51.416;6.678;2022-12-18T06:08:43;12.05;;;6.28;;
50900;SDS011;36879;51.416;6.678;2022-12-18T06:11:09;16.60;;;7.55;;
50900;SDS011;36879;51.416;6.678;2022-12-18T06:13:35;15.60;;;6.93;;
50900;SDS011;36879;51.416;6.678;2022-12-18T06:16:02;13.23;;;6.90;;
50900;SDS011;36879;51.416;6.678;2022-12-18T06:18:28;18.58;;;7.03;;
50900;SDS011;36879;51.416;6.678;2022-12-18T06:20:55;13.93;;;6.85;;
50900;SDS011;36879;51.416;6.678;2022-12-18T06:23:22;10.13;;;5.72;;
50900;SDS011;36879;51.416;6.678;2022-12-18T06:25:48;11.18;;;5.30;;
50900;SDS011;36879;51.416;6.678;2022-12-18T06:28:14;15.98;;;5.72;;
50900;SDS011;36879;51.416;6.678;2022-12-18T06:30:40;14.23;;;6.55;;
50900;SDS011;36879;51.416;6.678;2022-12-18T06:33:08;14.05;;;5.85;;
50900;SDS011;36879;51.416;6.678;2022-12-18T06:35:34;15.05;;;7.78;;
50900;SDS011;36879;51.416;6.678;2022-12-18T06:38:01;14.88;;;7.78;;
50900;SDS011;36879;51.416;6.678;2022-12-18T06:40:26;12.23;;;7.30;;
50900;SDS011;36879;51.416;6.678;2022-12-18T06:42:52;15.15;;;7.18;;
50900;SDS011;36879;51.416;6.678;2022-12-18T06:45:18;19.70;;;6.80;;
50900;SDS011;36879;51.416;6.678;2022-12-18T06:47:44;15.07;;;7.55;;
50900;SDS011;36879;51.416;6.678;2022-12-18T06:50:12;20.38;;;7.35;;
50900;SDS011;36879;51.416;6.678;2022-12-18T06:52:38;14.57;;;6.72;;
50900;SDS011;36879;51.416;6.678;2022-12-18T06:55:05;12.55;;;6.22;;
50900;SDS011;36879;51.416;6.678;2022-12-18T06:57:31;11.55;;;6.30;;
50900;SDS011;36879;51.416;6.678;2022-12-18T06:59:57;13.63;;;5.28;;
50900;SDS011;36879;51.416;6.678;2022-12-18T07:02:23;9.95;;;5.60;;
50900;SDS011;36879;51.416;6.678;2022-12-18T07:04:49;10.68;;;5.90;;
50900;SDS011;36879;51.416;6.678;2022-12-18T07:07:15;12.55;;;5.47;;
50900;SDS011;36879;51.416;6.678;2022-12-18T07:09:41;11.48;;;5.13;;
50900;SDS011;36879;51.416;6.678;2022-12-18T07:12:07;12.05;;;6.00;;
50900;SDS011;36879;51.416;6.678;2022-12-18T07:14:33;10.48;;;5.10;;
50900;SDS011;36879;51.416;6.678;2022-12-18T07:16:59;11.98;;;5.32;;
50900;SDS011;36879;51.416;6.678;2022-12-18T07:19:25;16.55;;;6.45;;
50900;SDS011;36879;51.416;6.678;2022-12-18T07:21:51;10.00;;;5.50;;
50900;SDS011;36879;51.416;6.678;2022-12-18T07:24:17;12.02;;;5.60;;
50900;SDS011;36879;51.416;6.678;2022-12-18T07:26:45;7.90;;;4.60;;
50900;SDS011;36879;51.416;6.678;2022-12-18T07:29:11;11.63;;;6.30;;
50900;SDS011;36879;51.416;6.678;2022-12-18T07:31:37;10.93;;;6.15;;
50900;SDS011;36879;51.416;6.678;2022-12-18T07:34:03;11.73;;;5.93;;
50900;SDS011;36879;51.416;6.678;2022-12-18T07:36:29;13.02;;;5.38;;
50900;SDS011;36879;51.416;6.678;2022-12-18T07:38:55;14.30;;;6.50;;
50900;SDS011;36879;51.416;6.678;2022-12-18T07:41:21;17.55;;;7.72;;
50900;SDS011;36879;51.416;6.678;2022-12-18T07:43:47;10.45;;;6.22;;
50900;SDS011;36879;51.416;6.678;2022-12-18T07:46:14;12.13;;;6.55;;
50900;SDS011;36879;51.416;6.678;2022-12-18T07:48:43;16.98;;;8.93;;
50900;SDS011;36879;51.416;6.678;2022-12-18T07:51:11;12.65;;;6.25;;
50900;SDS011;36879;51.416;6.678;2022-12-18T07:53:37;13.40;;;5.47;;
50900;SDS011;36879;51.416;6.678;2022-12-18T07:56:07;14.70;;;6.78;;
50900;SDS011;36879;51.416;6.678;2022-12-18T07:58:34;19.80;;;7.30;;
50900;SDS011;36879;51.416;6.678;2022-12-18T08:03:29;16.30;;;7.53;;
50900;SDS011;36879;51.416;6.678;2022-12-18T08:06:02;17.30;;;8.77;;
50900;SDS011;36879;51.416;6.678;2022-12-18T08:08:28;16.45;;;5.95;;
50900;SDS011;36879;51.416;6.678;2022-12-18T08:10:54;12.65;;;6.90;;
50900;SDS011;36879;51.416;6.678;2022-12-18T08:13:20;13.15;;;6.55;;
50900;SDS011;36879;51.416;6.678;2022-12-18T08:15:54;19.23;;;7.63;;
50900;SDS011;36879;51.416;6.678;2022-12-18T08:18:20;16.00;;;7.93;;
50900;SDS011;36879;51.416;6.678;2022-12-18T08:20:46;18.13;;;7.20;;
50900;SDS011;36879;51.416;6.678;2022-12-18T08:23:12;16.63;;;8.25;;
50900;SDS011;36879;51.416;6.678;2022-12-18T08:25:38;15.70;;;6.70;;
50900;SDS011;36879;51.416;6.678;2022-12-18T08:28:04;15.05;;;6.88;;
50900;SDS011;36879;51.416;6.678;2022-12-18T08:30:30;14.43;;;6.15;;
50900;SDS011;36879;51.416;6.678;2022-12-18T08:32:56;10.65;;;5.43;;
50900;SDS011;36879;51.416;6.678;2022-12-18T08:35:23;12.15;;;5.75;;
50900;SDS011;36879;51.416;6.678;2022-12-18T08:37:49;14.45;;;6.15;;
50900;SDS011;36879;51.416;6.678;2022-12-18T08:40:15;11.20;;;6.28;;
50900;SDS011;36879;51.416;6.678;2022-12-18T08:42:41;12.70;;;6.25;;
50900;SDS011;36879;51.416;6.678;2022-12-18T08:45:26;12.77;;;7.20;;
50900;SDS011;36879;51.416;6.678;2022-12-18T08:47:52;12.05;;;6.10;;
50900;SDS011;36879;51.416;6.678;2022-12-18T08:50:18;17.88;;;7.30;;
50900;SDS011;36879;51.416;6.678;2022-12-18T08:52:44;15.00;;;6.75;;
50900;SDS011;36879;51.416;6.678;2022-12-18T08:55:10;13.32;;;7.47;;
50900;SDS011;36879;51.416;6.678;2022-12-18T08:57:36;15.38;;;8.82;;
50900;SDS011;36879;51.416;6.678;2022-12-18T09:00:03;14.50;;;7.88;;
50900;SDS011;36879;51.416;6.678;2022-12-18T09:02:29;12.93;;;6.75;;
50900;SDS011;36879;51.416;6.678;2022-12-18T09:04:55;15.00;;;7.20;;
50900;SDS011;36879;51.416;6.678;2022-12-18T09:07:21;14.18;;;6.47;;
50900;SDS011;36879;51.416;6.678;2022-12-18T09:09:47;13.80;;;6.57;;
50900;SDS011;36879;51.416;6.678;2022-12-18T09:12:13;14.32;;;6.45;;
50900;SDS011;36879;51.416;6.678;2022-12-18T09:14:39;12.13;;;6.15;;
50900;SDS011;36879;51.416;6.678;2022-12-18T09:17:05;14.38;;;7.00;;
50900;SDS011;36879;51.416;6.678;2022-12-18T09:19:31;17.10;;;7.05;;
50900;SDS011;36879;51.416;6.678;2022-12-18T09:21:57;16.80;;;8.07;;
50900;SDS011;36879;51.416;6.678;2022-12-18T09:24:23;15.07;;;8.43;;
50900;SDS011;36879;51.416;6.678;2022-12-18T09:26:52;16.00;;;8.27;;
50900;SDS011;36879;51.416;6.678;2022-12-18T09:29:18;15.35;;;7.68;;
50900;SDS011;36879;51.416;6.678;2022-12-18T09:31:44;25.20;;;8.82;;
50900;SDS011;36879;51.416;6.678;2022-12-18T09:34:10;18.00;;;7.40;;
50900;SDS011;36879;51.416;6.678;2022-12-18T09:36:37;16.00;;;7.53;;
50900;SDS011;36879;51.416;6.678;2022-12-18T09:39:03;17.73;;;8.02;;
50900;SDS011;36879;51.416;6.678;2022-12-18T09:44:00;15.80;;;7.93;;
50900;SDS011;36879;51.416;6.678;2022-12-18T09:46:28;17.35;;;7.18;;
50900;SDS011;36879;51.416;6.678;2022-12-18T09:48:56;16.65;;;6.60;;
50900;SDS011;36879;51.416;6.678;2022-12-18T09:51:47;17.42;;;7.57;;
50900;SDS011;36879;51.416;6.678;2022-12-18T09:54:12;12.50;;;6.32;;
50900;SDS011;36879;51.416;6.678;2022-12-18T09:56:40;12.75;;;6.47;;
50900;SDS011;36879;51.416;6.678;2022-12-18T09:59:09;13.60;;;6.95;;
50900;SDS011;36879;51.416;6.678;2022-12-18T10:01:41;16.25;;;8.07;;
50900;SDS011;36879;51.416;6.678;2022-12-18T10:04:08;18.02;;;6.97;;
50900;SDS011;36879;51.416;6.678;2022-12-18T10:06:39;19.58;;;8.07;;
50900;SDS011;36879;51.416;6.678;2022-12-18T10:22:15;20.92;;;9.00;;
50900;SDS011;36879;51.416;6.678;2022-12-18T10:24:42;10.82;;;7.13;;
50900;SDS011;36879;51.416;6.678;2022-12-18T10:27:12;10.25;;;5.68;;
50900;SDS011;36879;51.416;6.678;2022-12-18T10:29:39;12.35;;;7.22;;
50900;SDS011;36879;51.416;6.678;2022-12-18T10:32:06;11.15;;;5.82;;
50900;SDS011;36879;51.416;6.678;2022-12-18T10:34:32;13.75;;;7.55;;
50900;SDS011;36879;51.416;6.678;2022-12-18T10:37:00;13.70;;;6.80;;
50900;SDS011;36879;51.416;6.678;2022-12-18T10:39:26;16.52;;;6.47;;
50900;SDS011;36879;51.416;6.678;2022-12-18T10:41:56;12.77;;;6.43;;
50900;SDS011;36879;51.416;6.678;2022-12-18T10:44:34;12.35;;;6.28;;
50900;SDS011;36879;51.416;6.678;2022-12-18T10:47:04;11.13;;;5.63;;
50900;SDS011;36879;51.416;6.678;2022-12-18T10:49:33;8.48;;;4.80;;
50900;SDS011;36879;51.416;6.678;2022-12-18T10:52:11;9.85;;;5.75;;
50900;SDS011;36879;51.416;6.678;2022-12-18T10:54:39;21.30;;;8.15;;
50900;SDS011;36879;51.416;6.678;2022-12-18T10:57:15;13.75;;;7.13;;
50900;SDS011;36879;51.416;6.678;2022-12-18T10:59:52;11.77;;;5.55;;
50900;SDS011;36879;51.416;6.678;2022-12-18T11:02:28;11.57;;;7.03;;
50900;SDS011;36879;51.416;6.678;2022-12-18T11:04:59;15.77;;;7.55;;
50900;SDS011;36879;51.416;6.678;2022-12-18T11:07:25;15.23;;;6.70;;
50900;SDS011;36879;51.416;6.678;2022-12-18T11:10:00;14.98;;;7.13;;
50900;SDS011;36879;51.416;6.678;2022-12-18T11:12:27;12.25;;;7.15;;
50900;SDS011;36879;51.416;6.678;2022-12-18T11:14:54;15.88;;;8.57;;
50900;SDS011;36879;51.416;6.678;2022-12-18T11:19:52;14.88;;;8.23;;
50900;SDS011;36879;51.416;6.678;2022-12-18T11:22:20;14.80;;;9.30;;
50900;SDS011;36879;51.416;6.678;2022-12-18T11:27:21;13.75;;;7.68;;
50900;SDS011;36879;51.416;6.678;2022-12-18T11:29:47;10.52;;;6.25;;
50900;SDS011;36879;51.416;6.678;2022-12-18T11:32:27;11.45;;;6.90;;
50900;SDS011;36879;51.416;6.678;2022-12-18T11:34:57;15.40;;;7.68;;
50900;SDS011;36879;51.416;6.678;2022-12-18T11:37:25;15.23;;;6.95;;
50900;SDS011;36879;51.416;6.678;2022-12-18T11:40:03;14.93;;;7.32;;
50900;SDS011;36879;51.416;6.678;2022-12-18T11:42:40;11.57;;;7.28;;
50900;SDS011;36879;51.416;6.678;2022-12-18T11:47:37;15.53;;;8.30;;
50900;SDS011;36879;51.416;6.678;2022-12-18T11:50:10;18.33;;;8.55;;
50900;SDS011;36879;51.416;6.678;2022-12-18T11:52:39;12.25;;;6.35;;
50900;SDS011;36879;51.416;6.678;2022-12-18T11:55:12;17.08;;;7.95;;
50900;SDS011;36879;51.416;6.678;2022-12-18T12:00:32;22.60;;;9.68;;
50900;SDS011;36879;51.416;6.678;2022-12-18T12:05:34;17.73;;;8.30;;
50900;SDS011;36879;51.416;6.678;2022-12-18T12:23:41;17.27;;;7.68;;
50900;SDS011;36879;51.416;6.678;2022-12-18T12:26:10;17.75;;;8.10;;
50900;SDS011;36879;51.416;6.678;2022-12-18T12:31:15;16.88;;;7.78;;
50900;SDS011;36879;51.416;6.678;2022-12-18T12:38:49;17.80;;;9.45;;
50900;SDS011;36879;51.416;6.678;2022-12-18T12:41:17;18.75;;;9.60;;
50900;SDS011;36879;51.416;6.678;2022-12-18T12:44:04;17.50;;;8.95;;
50900;SDS011;36879;51.416;6.678;2022-12-18T12:46:32;16.65;;;8.02;;
50900;SDS011;36879;51.416;6.678;2022-12-18T12:49:01;13.30;;;8.50;;
50900;SDS011;36879;51.416;6.678;2022-12-18T12:51:30;14.20;;;7.78;;
50900;SDS011;36879;51.416;6.678;2022-12-18T12:53:58;16.73;;;8.65;;
50900;SDS011;36879;51.416;6.678;2022-12-18T12:56:27;18.80;;;9.07;;
50900;SDS011;36879;51.416;6.678;2022-12-18T12:59:02;24.67;;;9.43;;
50900;SDS011;36879;51.416;6.678;2022-12-18T13:06:41;21.00;;;9.80;;
50900;SDS011;36879;51.416;6.678;2022-12-18T13:09:08;24.55;;;10.65;;
50900;SDS011;36879;51.416;6.678;2022-12-18T13:11:35;20.08;;;10.13;;
50900;SDS011;36879;51.416;6.678;2022-12-18T13:14:31;24.60;;;11.50;;
50900;SDS011;36879;51.416;6.678;2022-12-18T13:17:14;16.80;;;9.15;;
50900;SDS011;36879;51.416;6.678;2022-12-18T13:19:41;17.98;;;10.65;;
50900;SDS011;36879;51.416;6.678;2022-12-18T13:22:20;22.27;;;11.05;;
50900;SDS011;36879;51.416;6.678;2022-12-18T13:24:46;19.60;;;9.50;;
50900;SDS011;36879;51.416;6.678;2022-12-18T13:29:57;15.80;;;9.25;;
50900;SDS011;36879;51.416;6.678;2022-12-18T13:32:24;14.70;;;9.98;;
50900;SDS011;36879;51.416;6.678;2022-12-18T13:40:20;19.27;;;10.70;;
50900;SDS011;36879;51.416;6.678;2022-12-18T13:42:50;16.80;;;9.93;;
50900;SDS011;36879;51.416;6.678;2022-12-18T13:45:37;19.92;;;11.15;;
50900;SDS011;36879;51.416;6.678;2022-12-18T13:48:03;17.77;;;8.55;;
50900;SDS011;36879;51.416;6.678;2022-12-18T13:50:29;18.92;;;10.02;;
50900;SDS011;36879;51.416;6.678;2022-12-18T13:52:56;14.50;;;8.00;;
50900;SDS011;36879;51.416;6.678;2022-12-18T13:55:23;18.52;;;8.75;;
50900;SDS011;36879;51.416;6.678;2022-12-18T13:57:49;18.48;;;9.10;;
50900;SDS011;36879;51.416;6.678;2022-12-18T14:02:44;16.67;;;8.90;;
50900;SDS011;36879;51.416;6.678;2022-12-18T14:05:27;19.48;;;9.48;;
50900;SDS011;36879;51.416;6.678;2022-12-18T14:07:53;20.08;;;11.25;;
50900;SDS011;36879;51.416;6.678;2022-12-18T14:10:20;20.85;;;10.13;;
50900;SDS011;36879;51.416;6.678;2022-12-18T14:12:47;16.98;;;8.35;;
50900;SDS011;36879;51.416;6.678;2022-12-18T14:17:53;19.92;;;10.40;;
50900;SDS011;36879;51.416;6.678;2022-12-18T14:20:20;29.85;;;11.48;;
50900;SDS011;36879;51.416;6.678;2022-12-18T14:22:46;24.33;;;12.05;;
50900;SDS011;36879;51.416;6.678;2022-12-18T14:27:44;22.15;;;9.98;;
50900;SDS011;36879;51.416;6.678;2022-12-18T14:30:44;16.23;;;9.50;;
50900;SDS011;36879;51.416;6.678;2022-12-18T14:33:13;17.20;;;9.07;;
50900;SDS011;36879;51.416;6.678;2022-12-18T14:35:43;19.95;;;10.20;;
50900;SDS011;36879;51.416;6.678;2022-12-18T14:38:22;18.40;;;10.13;;
50900;SDS011;36879;51.416;6.678;2022-12-18T14:40:55;18.30;;;10.30;;
50900;SDS011;36879;51.416;6.678;2022-12-18T14:43:21;13.00;;;8.38;;
50900;SDS011;36879;51.416;6.678;2022-12-18T14:45:47;24.88;;;11.63;;
50900;SDS011;36879;51.416;6.678;2022-12-18T14:48:19;22.40;;;11.13;;
50900;SDS011;36879;51.416;6.678;2022-12-18T14:50:53;22.90;;;12.25;;
50900;SDS011;36879;51.416;6.678;2022-12-18T14:53:22;24.20;;;11.90;;
50900;SDS011;36879;51.416;6.678;2022-12-18T14:55:48;23.80;;;11.13;;
50900;SDS011;36879;51.416;6.678;2022-12-18T14:58:15;25.98;;;11.70;;
50900;SDS011;36879;51.416;6.678;2022-12-18T15:00:43;22.85;;;12.57;;
50900;SDS011;36879;51.416;6.678;2022-12-18T15:03:09;27.45;;;13.43;;
50900;SDS011;36879;51.416;6.678;2022-12-18T15:05:35;22.67;;;11.73;;
50900;SDS011;36879;51.416;6.678;2022-12-18T15:08:01;26.48;;;11.90;;
50900;SDS011;36879;51.416;6.678;2022-12-18T15:10:31;28.23;;;14.23;;
50900;SDS011;36879;51.416;6.678;2022-12-18T15:20:42;30.70;;;13.75;;
50900;SDS011;36879;51.416;6.678;2022-12-18T15:23:16;31.48;;;12.80;;
50900;SDS011;36879;51.416;6.678;2022-12-18T15:25:42;24.75;;;12.82;;
50900;SDS011;36879;51.416;6.678;2022-12-18T15:28:17;29.80;;;12.95;;
50900;SDS011;36879;51.416;6.678;2022-12-18T15:33:44;24.23;;;12.77;;
50900;SDS011;36879;51.416;6.678;2022-12-18T15:36:04;31.33;;;13.52;;
50900;SDS011;36879;51.416;6.678;2022-12-18T15:38:30;60.50;;;23.20;;
50900;SDS011;36879;51.416;6.678;2022-12-18T15:40:56;28.20;;;13.95;;
50900;SDS011;36879;51.416;6.678;2022-12-18T15:43:23;32.60;;;13.98;;
50900;SDS011;36879;51.416;6.678;2022-12-18T15:45:59;26.38;;;14.27;;
50900;SDS011;36879;51.416;6.678;2022-12-18T15:48:25;28.17;;;14.82;;
50900;SDS011;36879;51.416;6.678;2022-12-18T15:50:52;27.08;;;14.20;;
50900;SDS011;36879;51.416;6.678;2022-12-18T15:53:20;27.42;;;12.38;;
50900;SDS011;36879;51.416;6.678;2022-12-18T15:55:46;22.88;;;12.30;;
50900;SDS011;36879;51.416;6.678;2022-12-18T15:58:31;26.15;;;14.15;;
50900;SDS011;36879;51.416;6.678;2022-12-18T16:00:58;27.67;;;14.25;;
50900;SDS011;36879;51.416;6.678;2022-12-18T16:03:24;26.67;;;13.32;;
50900;SDS011;36879;51.416;6.678;2022-12-18T16:05:50;29.45;;;13.13;;
50900;SDS011;36879;51.416;6.678;2022-12-18T16:08:16;29.27;;;13.13;;
50900;SDS011;36879;51.416;6.678;2022-12-18T16:10:42;29.10;;;13.68;;
50900;SDS011;36879;51.416;6.678;2022-12-18T16:13:12;23.10;;;11.93;;
50900;SDS011;36879;51.416;6.678;2022-12-18T16:15:41;24.08;;;12.75;;
50900;SDS011;36879;51.416;6.678;2022-12-18T16:18:07;26.17;;;12.45;;
50900;SDS011;36879;51.416;6.678;2022-12-18T16:20:33;29.77;;;12.93;;
50900;SDS011;36879;51.416;6.678;2022-12-18T16:22:59;28.60;;;13.13;;